createdAt,value
2019-03-29T00:01:19.874Z,64.53
2019-03-29T00:03:48.672Z,67.78
2019-03-29T00:06:17.380Z,68.22
2019-03-29T00:08:46.009Z,74.53
2019-03-29T00:11:14.500Z,70.67
2019-03-29T00:13:43.023Z,69.97
2019-03-29T00:16:11.570Z,73.25
2019-03-29T00:18:40.122Z,77.67
2019-03-29T00:21:08.703Z,75.45
2019-03-29T00:23:37.399Z,70.87
2019-03-29T00:26:06.079Z,74.25
2019-03-29T00:28:34.613Z,77.97
2019-03-29T00:31:03.162Z,78.72
2019-03-29T00:33:31.639Z,73.05
2019-03-29T00:36:00.170Z,70.22
2019-03-29T00:38:29.041Z,68.50
2019-03-29T00:40:58.874Z,78.55
2019-03-29T00:43:27.512Z,76.95
2019-03-29T00:45:56.154Z,76.55
2019-03-29T00:48:24.678Z,76.62
2019-03-29T00:50:53.226Z,70.55
2019-03-29T00:53:21.701Z,74.97
2019-03-29T00:55:50.220Z,67.92
2019-03-29T00:58:18.709Z,67.85
2019-03-29T01:03:28.339Z,67.62
2019-03-29T01:05:56.859Z,74.03
2019-03-29T01:08:25.642Z,72.15
2019-03-29T01:10:54.102Z,72.58
2019-03-29T01:13:22.644Z,75.28
2019-03-29T01:15:51.180Z,70.15
2019-03-29T01:18:19.694Z,67.50
2019-03-29T01:20:48.326Z,57.50
2019-03-29T01:23:16.851Z,60.63
2019-03-29T01:25:45.390Z,61.40
2019-03-29T01:28:13.954Z,66.95
2019-03-29T01:30:42.451Z,72.00
2019-03-29T01:33:11.048Z,69.85
2019-03-29T01:35:39.533Z,64.62
2019-03-29T01:38:20.780Z,70.08
2019-03-29T01:40:38.303Z,69.47
2019-03-29T01:43:06.774Z,71.80
2019-03-29T01:45:35.318Z,75.00
2019-03-29T01:48:03.924Z,78.12
2019-03-29T01:50:32.499Z,74.53
2019-03-29T01:53:01.029Z,71.30
2019-03-29T01:55:29.539Z,73.37
2019-03-29T01:57:58.957Z,74.00
2019-03-29T02:00:32.879Z,67.35
2019-03-29T02:03:01.782Z,72.67
2019-03-29T02:05:30.699Z,71.42
2019-03-29T02:07:59.418Z,69.37
2019-03-29T02:10:28.073Z,69.80
2019-03-29T02:12:56.618Z,66.85
2019-03-29T02:15:25.311Z,61.15
2019-03-29T02:17:53.875Z,54.58
2019-03-29T02:20:23.847Z,53.52
2019-03-29T02:22:52.829Z,57.38
2019-03-29T02:25:21.350Z,52.40
2019-03-29T02:27:49.887Z,52.95
2019-03-29T02:30:18.612Z,59.13
2019-03-29T02:32:47.274Z,55.67
2019-03-29T02:35:15.865Z,56.98
2019-03-29T02:37:44.379Z,63.83
2019-03-29T02:40:13.070Z,60.45
2019-03-29T02:42:42.655Z,55.78
2019-03-29T02:45:12.157Z,59.73
2019-03-29T02:47:40.731Z,56.20
2019-03-29T02:50:09.703Z,54.60
2019-03-29T02:52:38.228Z,59.48
2019-03-29T02:55:07.653Z,54.48
2019-03-29T02:57:36.224Z,52.55
2019-03-29T03:00:07.710Z,45.63
2019-03-29T03:02:36.324Z,44.83
2019-03-29T03:05:06.847Z,40.30
2019-03-29T03:07:35.444Z,43.73
2019-03-29T03:10:09.007Z,42.80
2019-03-29T03:12:37.679Z,47.70
2019-03-29T03:15:07.422Z,42.60
2019-03-29T03:17:36.003Z,46.53
2019-03-29T03:20:14.611Z,43.28
2019-03-29T03:22:40.847Z,39.27
2019-03-29T03:25:10.023Z,39.80
2019-03-29T03:27:38.570Z,37.63
2019-03-29T03:30:11.985Z,41.95
2019-03-29T03:32:40.574Z,46.45
2019-03-29T03:35:10.586Z,46.00
2019-03-29T03:37:39.283Z,48.95
2019-03-29T03:40:09.422Z,42.40
2019-03-29T03:42:38.091Z,35.30
2019-03-29T03:45:10.159Z,44.48
2019-03-29T03:47:41.755Z,53.78
2019-03-29T03:50:31.608Z,54.85
2019-03-29T03:53:00.251Z,50.85
2019-03-29T03:55:29.919Z,47.33
2019-03-29T03:57:58.475Z,46.08
2019-03-29T04:00:30.131Z,47.83
2019-03-29T04:02:58.707Z,39.20
2019-03-29T04:05:27.253Z,41.90
2019-03-29T04:07:55.721Z,45.20
2019-03-29T04:10:24.350Z,38.95
2019-03-29T04:12:52.956Z,37.90
2019-03-29T04:15:21.517Z,48.08
2019-03-29T04:17:50.108Z,47.53
2019-03-29T04:20:19.046Z,52.25
2019-03-29T04:22:47.565Z,59.08
2019-03-29T04:25:16.087Z,71.00
2019-03-29T04:27:44.769Z,71.17
2019-03-29T04:30:13.540Z,70.92
2019-03-29T04:32:42.128Z,74.12
2019-03-29T04:35:10.757Z,70.57
2019-03-29T04:37:39.371Z,66.65
2019-03-29T04:40:08.955Z,65.32
2019-03-29T04:42:37.743Z,67.82
2019-03-29T04:45:06.889Z,69.97
2019-03-29T04:47:35.415Z,75.08
2019-03-29T04:50:06.760Z,82.82
2019-03-29T04:52:35.368Z,74.82
2019-03-29T04:55:05.892Z,79.60
2019-03-29T04:57:34.451Z,79.75
2019-03-29T05:00:03.074Z,76.80
2019-03-29T05:02:31.730Z,68.10
2019-03-29T05:05:00.441Z,74.30
2019-03-29T05:07:28.967Z,71.25
2019-03-29T05:09:57.555Z,69.65
2019-03-29T05:12:26.099Z,60.75
2019-03-29T05:14:54.615Z,53.15
2019-03-29T05:17:23.177Z,47.45
2019-03-29T05:19:51.741Z,41.70
2019-03-29T05:22:20.287Z,39.83
2019-03-29T05:24:48.840Z,46.15
2019-03-29T05:27:17.837Z,50.78
2019-03-29T05:29:46.389Z,49.95
2019-03-29T05:32:15.008Z,51.77
2019-03-29T05:34:43.581Z,56.85
2019-03-29T05:37:12.144Z,64.03
2019-03-29T05:39:40.893Z,69.62
2019-03-29T05:42:09.379Z,62.93
2019-03-29T05:44:40.717Z,61.05
2019-03-29T05:47:08.143Z,64.25
2019-03-29T05:49:36.739Z,63.90
2019-03-29T05:52:05.470Z,67.97
2019-03-29T05:54:33.973Z,66.07
2019-03-29T05:57:04.855Z,60.70
2019-03-29T05:59:33.456Z,56.33
2019-03-29T06:02:02.125Z,52.78
2019-03-29T06:04:30.785Z,50.90
2019-03-29T06:06:59.430Z,49.65
2019-03-29T06:09:29.620Z,48.28
2019-03-29T06:11:58.220Z,44.50
2019-03-29T06:14:29.383Z,52.45
2019-03-29T06:17:00.923Z,54.00
2019-03-29T06:19:32.374Z,43.65
2019-03-29T06:22:00.911Z,59.00
2019-03-29T06:24:33.890Z,95.87
2019-03-29T06:27:02.477Z,99.92
2019-03-29T06:29:31.155Z,162.97
2019-03-29T06:31:59.843Z,88.22
2019-03-29T06:34:28.506Z,51.85
2019-03-29T06:36:58.679Z,104.23
2019-03-29T06:39:28.312Z,188.20
2019-03-29T06:41:57.004Z,141.30
2019-03-29T06:44:25.678Z,98.25
2019-03-29T06:46:54.279Z,63.50
2019-03-29T06:49:22.876Z,57.05
2019-03-29T06:51:51.828Z,58.08
2019-03-29T06:54:20.447Z,58.10
2019-03-29T06:56:48.990Z,61.33
2019-03-29T06:59:17.594Z,59.38
2019-03-29T07:01:46.613Z,61.15
2019-03-29T07:04:15.330Z,56.25
2019-03-29T07:06:44.004Z,54.58
2019-03-29T07:09:12.953Z,51.98
2019-03-29T07:11:41.508Z,52.75
2019-03-29T07:14:10.040Z,56.05
2019-03-29T07:16:38.587Z,52.90
2019-03-29T07:19:07.080Z,55.33
2019-03-29T07:21:38.606Z,57.48
2019-03-29T07:24:07.348Z,55.33
2019-03-29T07:26:36.056Z,53.33
2019-03-29T07:29:04.825Z,53.60
2019-03-29T07:31:33.558Z,54.40
2019-03-29T07:34:09.843Z,54.13
2019-03-29T07:36:41.160Z,55.55
2019-03-29T07:39:06.676Z,53.35
2019-03-29T07:41:36.914Z,50.48
2019-03-29T07:44:32.409Z,55.88
2019-03-29T07:46:57.140Z,54.33
2019-03-29T07:49:27.572Z,51.37
2019-03-29T07:52:02.422Z,53.40
2019-03-29T07:54:34.536Z,52.25
2019-03-29T07:57:05.912Z,48.40
2019-03-29T07:59:34.640Z,53.35
2019-03-29T08:02:03.564Z,51.65
2019-03-29T08:04:32.522Z,52.23
2019-03-29T08:07:06.036Z,52.43
2019-03-29T08:09:36.183Z,50.48
2019-03-29T08:12:05.164Z,48.05
2019-03-29T08:14:36.958Z,48.60
2019-03-29T08:17:07.555Z,48.08
2019-03-29T08:19:40.812Z,50.12
2019-03-29T08:22:13.739Z,49.10
2019-03-29T08:24:40.855Z,48.78
2019-03-29T08:27:09.748Z,47.93
2019-03-29T08:29:41.033Z,48.15
2019-03-29T08:32:11.606Z,46.42
2019-03-29T08:34:57.069Z,47.03
2019-03-29T08:37:15.484Z,43.63
2019-03-29T08:39:44.059Z,48.10
2019-03-29T08:42:18.568Z,46.68
2019-03-29T08:44:50.492Z,46.58
2019-03-29T08:47:20.667Z,46.50
2019-03-29T08:49:56.085Z,44.40
2019-03-29T08:52:27.924Z,41.77
2019-03-29T08:56:33.262Z,40.10
2019-03-29T08:57:36.663Z,37.93
2019-03-29T09:00:24.292Z,34.40
2019-03-29T09:02:55.604Z,34.43
2019-03-29T09:08:01.441Z,34.35
2019-03-29T09:10:34.218Z,36.28
2019-03-29T09:13:11.899Z,38.35
2019-03-29T09:15:48.971Z,39.30
2019-03-29T09:18:25.973Z,38.95
2019-03-29T09:20:55.599Z,39.73
2019-03-29T09:23:24.389Z,35.55
2019-03-29T09:25:54.729Z,37.17
2019-03-29T09:28:26.175Z,33.53
2019-03-29T09:30:56.630Z,30.43
2019-03-29T09:33:58.362Z,30.92
2019-03-29T09:36:22.627Z,35.58
2019-03-29T09:38:56.809Z,32.10
2019-03-29T09:41:37.023Z,33.53
2019-03-29T09:44:04.887Z,31.77
2019-03-29T09:46:33.705Z,29.98
2019-03-29T09:49:03.669Z,28.47
2019-03-29T09:51:37.530Z,26.05
2019-03-29T09:54:06.248Z,27.73
2019-03-29T09:56:39.559Z,28.55
2019-03-29T09:59:23.141Z,28.60
2019-03-29T10:02:03.025Z,27.82
2019-03-29T10:04:31.274Z,24.12
2019-03-29T10:07:10.933Z,26.30
2019-03-29T10:09:39.860Z,26.07
2019-03-29T10:12:17.198Z,25.32
2019-03-29T10:14:54.144Z,25.10
2019-03-29T10:17:37.788Z,25.88
2019-03-29T10:20:24.018Z,21.47
2019-03-29T10:22:52.667Z,22.32
2019-03-29T10:25:21.749Z,21.07
2019-03-29T10:27:50.442Z,22.20
2019-03-29T10:30:46.001Z,19.65
2019-03-29T10:33:12.603Z,19.13
2019-03-29T10:35:51.490Z,18.55
2019-03-29T10:38:11.477Z,17.98
2019-03-29T10:40:39.964Z,19.73
2019-03-29T10:43:08.853Z,17.95
2019-03-29T10:45:40.302Z,19.27
2019-03-29T10:48:07.564Z,16.02
2019-03-29T10:50:36.038Z,16.85
2019-03-29T10:53:04.792Z,18.95
2019-03-29T10:55:33.262Z,18.85
2019-03-29T10:58:01.819Z,10.23
2019-03-29T11:00:33.350Z,12.45
2019-03-29T11:03:01.862Z,15.13
2019-03-29T11:05:30.770Z,14.55
2019-03-29T11:07:59.519Z,19.15
2019-03-29T11:10:30.578Z,17.15
2019-03-29T11:13:11.974Z,15.98
2019-03-29T11:15:30.260Z,16.73
2019-03-29T11:17:58.724Z,16.85
2019-03-29T11:20:27.258Z,16.70
2019-03-29T11:22:55.972Z,17.98
2019-03-29T11:25:24.474Z,14.93
2019-03-29T11:27:53.032Z,16.42
2019-03-29T11:30:21.584Z,16.12
2019-03-29T11:32:50.044Z,15.98
2019-03-29T11:35:18.520Z,15.30
2019-03-29T11:37:46.984Z,17.20
2019-03-29T11:40:15.614Z,17.55
2019-03-29T11:42:44.146Z,16.23
2019-03-29T11:45:12.698Z,16.37
2019-03-29T11:47:41.468Z,15.13
2019-03-29T11:50:10.136Z,15.53
2019-03-29T11:52:38.691Z,15.55
2019-03-29T11:55:07.288Z,14.95
2019-03-29T11:57:35.859Z,14.78
2019-03-29T12:00:06.152Z,16.02
2019-03-29T12:02:34.622Z,16.27
2019-03-29T12:05:03.262Z,17.00
2019-03-29T12:07:31.837Z,17.00
2019-03-29T12:10:00.392Z,16.52
2019-03-29T12:12:28.851Z,18.15
2019-03-29T12:14:57.490Z,17.42
2019-03-29T12:17:26.042Z,18.15
2019-03-29T12:19:54.534Z,17.02
2019-03-29T12:22:23.008Z,18.32
2019-03-29T12:24:51.574Z,18.87
2019-03-29T12:27:20.138Z,16.73
2019-03-29T12:29:48.687Z,19.45
2019-03-29T12:32:17.258Z,20.48
2019-03-29T12:34:45.797Z,21.35
2019-03-29T12:37:14.301Z,19.00
2019-03-29T12:39:42.900Z,17.70
2019-03-29T12:42:11.394Z,17.42
2019-03-29T12:44:39.977Z,18.40
2019-03-29T12:47:08.542Z,20.08
2019-03-29T12:49:37.043Z,19.60
2019-03-29T12:52:05.900Z,18.80
2019-03-29T12:54:34.409Z,14.07
2019-03-29T12:57:02.979Z,22.75
2019-03-29T12:59:32.900Z,20.57
2019-03-29T13:02:01.904Z,20.30
2019-03-29T13:04:30.453Z,21.15
2019-03-29T13:06:59.188Z,21.35
2019-03-29T13:09:27.674Z,19.98
2019-03-29T13:11:56.197Z,20.72
2019-03-29T13:14:24.680Z,19.95
2019-03-29T13:16:53.317Z,20.57
2019-03-29T13:19:21.877Z,20.72
2019-03-29T13:21:50.343Z,21.17
2019-03-29T13:24:18.806Z,23.38
2019-03-29T13:26:47.367Z,22.30
2019-03-29T13:29:15.829Z,21.30
2019-03-29T13:31:44.319Z,21.35
2019-03-29T13:34:12.840Z,20.40
2019-03-29T13:36:41.344Z,21.02
2019-03-29T13:39:09.839Z,21.10
2019-03-29T13:41:38.285Z,21.07
2019-03-29T13:44:06.751Z,21.05
2019-03-29T13:46:35.283Z,21.05
2019-03-29T13:49:03.744Z,20.85
2019-03-29T13:51:32.301Z,19.73
2019-03-29T13:54:00.844Z,20.68
2019-03-29T13:56:29.415Z,20.48
2019-03-29T13:58:57.886Z,20.82
2019-03-29T14:01:26.368Z,17.02
2019-03-29T14:03:55.187Z,20.45
2019-03-29T14:06:23.715Z,20.12
2019-03-29T14:08:52.173Z,18.82
2019-03-29T14:11:20.662Z,19.23
2019-03-29T14:13:49.127Z,19.60
2019-03-29T14:16:17.687Z,19.27
2019-03-29T14:18:46.162Z,19.48
2019-03-29T14:21:14.625Z,18.12
2019-03-29T14:23:43.182Z,19.82
2019-03-29T14:26:11.651Z,18.23
2019-03-29T14:28:40.176Z,19.17
2019-03-29T14:31:08.790Z,18.15
2019-03-29T14:33:37.258Z,21.15
2019-03-29T14:36:05.737Z,16.15
2019-03-29T14:38:34.378Z,14.98
2019-03-29T14:41:02.884Z,15.68
2019-03-29T14:43:31.378Z,15.48
2019-03-29T14:45:59.897Z,15.48
2019-03-29T14:48:28.460Z,14.87
2019-03-29T14:50:56.967Z,15.05
2019-03-29T14:53:25.457Z,14.30
2019-03-29T14:55:54.068Z,14.33
2019-03-29T14:58:22.554Z,14.93
2019-03-29T15:00:51.062Z,14.18
2019-03-29T15:03:19.970Z,13.30
2019-03-29T15:05:48.595Z,14.43
2019-03-29T15:08:17.129Z,13.93
2019-03-29T15:10:46.249Z,15.40
2019-03-29T15:13:14.720Z,15.18
2019-03-29T15:15:43.339Z,15.15
2019-03-29T15:18:11.906Z,14.93
2019-03-29T15:20:52.531Z,14.18
2019-03-29T15:23:10.706Z,13.00
2019-03-29T15:25:40.692Z,14.10
2019-03-29T15:28:09.564Z,13.38
2019-03-29T15:30:38.079Z,13.58
2019-03-29T15:33:06.568Z,13.62
2019-03-29T15:35:35.136Z,13.03
2019-03-29T15:38:03.749Z,13.00
2019-03-29T15:40:32.733Z,12.75
2019-03-29T15:43:01.320Z,13.30
2019-03-29T15:45:29.881Z,12.35
2019-03-29T15:47:58.405Z,12.05
2019-03-29T15:50:27.261Z,11.55
2019-03-29T15:52:55.814Z,9.60
2019-03-29T15:55:24.285Z,10.80
2019-03-29T15:57:52.802Z,10.35
2019-03-29T16:00:21.281Z,10.45
2019-03-29T16:02:49.852Z,10.78
2019-03-29T16:05:18.347Z,10.10
2019-03-29T16:07:46.820Z,10.43
2019-03-29T16:10:15.457Z,10.18
2019-03-29T16:12:43.949Z,10.58
2019-03-29T16:15:12.519Z,10.20
2019-03-29T16:17:41.019Z,11.55
2019-03-29T16:20:09.780Z,10.80
2019-03-29T16:22:38.358Z,10.65
2019-03-29T16:25:07.786Z,10.13
2019-03-29T16:27:36.279Z,10.53
2019-03-29T16:30:07.561Z,9.95
2019-03-29T16:32:36.940Z,10.45
2019-03-29T16:35:08.251Z,9.90
2019-03-29T16:37:36.892Z,10.18
2019-03-29T16:40:07.105Z,11.10
2019-03-29T16:42:35.885Z,11.20
2019-03-29T16:45:06.615Z,11.33
2019-03-29T16:47:35.158Z,12.60
2019-03-29T16:50:05.757Z,12.10
2019-03-29T16:52:34.279Z,12.20
2019-03-29T16:55:13.147Z,11.75
2019-03-29T16:57:33.095Z,12.23
2019-03-29T17:00:01.680Z,13.28
2019-03-29T17:02:30.261Z,12.05
2019-03-29T17:04:58.791Z,12.85
2019-03-29T17:07:27.383Z,12.68
2019-03-29T17:09:55.878Z,12.65
2019-03-29T17:12:24.345Z,11.88
2019-03-29T17:14:52.882Z,12.23
2019-03-29T17:17:21.492Z,12.20
2019-03-29T17:19:50.054Z,12.68
2019-03-29T17:22:18.608Z,12.47
2019-03-29T17:24:56.851Z,12.88
2019-03-29T17:27:17.375Z,12.47
2019-03-29T17:29:45.848Z,13.05
2019-03-29T17:32:14.391Z,12.55
2019-03-29T17:34:42.907Z,14.15
2019-03-29T17:37:11.753Z,14.53
2019-03-29T17:39:40.317Z,13.55
2019-03-29T17:42:08.850Z,13.35
2019-03-29T17:44:37.307Z,13.62
2019-03-29T17:47:05.811Z,14.65
2019-03-29T17:49:34.280Z,15.00
2019-03-29T17:52:02.767Z,13.53
2019-03-29T17:54:31.234Z,14.85
2019-03-29T17:56:59.716Z,14.33
2019-03-29T17:59:28.201Z,14.53
2019-03-29T18:02:08.813Z,14.47
2019-03-29T18:04:27.591Z,15.20
2019-03-29T18:06:56.066Z,15.05
2019-03-29T18:09:24.690Z,15.50
2019-03-29T18:11:53.248Z,15.18
2019-03-29T18:14:22.211Z,15.78
2019-03-29T18:16:50.694Z,15.00
2019-03-29T18:19:19.328Z,16.20
2019-03-29T18:21:47.871Z,15.83
2019-03-29T18:24:16.380Z,16.37
2019-03-29T18:26:44.956Z,14.35
2019-03-29T18:29:13.835Z,15.40
2019-03-29T18:31:42.489Z,15.75
2019-03-29T18:34:11.107Z,15.25
2019-03-29T18:36:40.744Z,14.65
2019-03-29T18:39:09.357Z,14.73
2019-03-29T18:41:38.008Z,15.53
2019-03-29T18:44:06.525Z,16.80
2019-03-29T18:46:44.482Z,15.10
2019-03-29T18:49:05.660Z,15.40
2019-03-29T18:51:34.256Z,15.35
2019-03-29T18:54:02.828Z,15.85
2019-03-29T18:56:31.354Z,16.85
2019-03-29T18:58:59.815Z,16.93
2019-03-29T19:01:28.404Z,20.02
2019-03-29T19:03:56.885Z,29.55
2019-03-29T19:06:25.358Z,23.42
2019-03-29T19:08:53.882Z,24.32
2019-03-29T19:11:22.458Z,25.05
2019-03-29T19:13:50.967Z,18.80
2019-03-29T19:16:19.964Z,17.77
2019-03-29T19:18:48.515Z,16.48
2019-03-29T19:21:17.173Z,17.25
2019-03-29T19:23:45.698Z,16.60
2019-03-29T19:26:14.277Z,16.35
2019-03-29T19:28:42.873Z,19.25
2019-03-29T19:31:11.363Z,17.27
2019-03-29T19:33:40.198Z,17.20
2019-03-29T19:36:08.757Z,17.23
2019-03-29T19:38:37.406Z,18.50
2019-03-29T19:41:05.938Z,17.37
2019-03-29T19:43:34.442Z,17.07
2019-03-29T19:46:03.078Z,17.10
2019-03-29T19:48:31.639Z,17.40
2019-03-29T19:51:00.155Z,17.85
2019-03-29T19:53:28.848Z,17.87
2019-03-29T19:55:57.490Z,18.95
2019-03-29T19:58:26.069Z,19.02
2019-03-29T20:00:54.662Z,19.73
2019-03-29T20:03:23.235Z,18.60
2019-03-29T20:05:51.838Z,19.30
2019-03-29T20:08:20.381Z,19.80
2019-03-29T20:10:48.978Z,20.57
2019-03-29T20:13:17.730Z,19.57
2019-03-29T20:15:46.281Z,20.37
2019-03-29T20:18:14.883Z,19.50
2019-03-29T20:20:43.380Z,23.25
2019-03-29T20:23:11.858Z,20.60
2019-03-29T20:25:40.379Z,24.25
2019-03-29T20:28:08.956Z,27.10
2019-03-29T20:30:37.855Z,24.87
2019-03-29T20:33:06.399Z,24.18
2019-03-29T20:35:35.060Z,23.22
2019-03-29T20:38:03.624Z,23.95
2019-03-29T20:40:32.582Z,22.37
2019-03-29T20:43:01.135Z,29.72
2019-03-29T20:45:29.698Z,23.42
2019-03-29T20:47:58.349Z,20.25
2019-03-29T20:50:26.863Z,23.27
2019-03-29T20:52:55.371Z,24.05
2019-03-29T20:55:24.000Z,22.42
2019-03-29T20:57:52.466Z,25.15
2019-03-29T21:00:21.195Z,29.98
2019-03-29T21:02:49.735Z,30.72
2019-03-29T21:05:18.448Z,29.70
2019-03-29T21:07:46.999Z,35.03
2019-03-29T21:10:15.607Z,30.88
2019-03-29T21:12:44.094Z,35.43
2019-03-29T21:15:13.061Z,32.58
2019-03-29T21:17:55.588Z,32.25
2019-03-29T21:20:11.918Z,29.70
2019-03-29T21:22:40.453Z,31.12
2019-03-29T21:25:09.353Z,30.12
2019-03-29T21:27:38.091Z,39.20
2019-03-29T21:30:09.756Z,42.25
2019-03-29T21:32:38.305Z,44.03
2019-03-29T21:35:08.005Z,43.30
2019-03-29T21:37:36.999Z,44.60
2019-03-29T21:40:07.755Z,44.63
2019-03-29T21:42:36.740Z,45.15
2019-03-29T21:45:07.220Z,43.38
2019-03-29T21:47:35.852Z,44.03
2019-03-29T21:50:07.583Z,38.92
2019-03-29T21:52:36.279Z,38.70
2019-03-29T21:55:08.005Z,45.60
2019-03-29T21:57:36.489Z,36.25
2019-03-29T22:00:08.350Z,47.73
2019-03-29T22:02:37.047Z,44.83
2019-03-29T22:05:10.026Z,50.73
2019-03-29T22:07:36.679Z,40.15
2019-03-29T22:10:10.657Z,42.60
2019-03-29T22:15:09.018Z,41.58
2019-03-29T22:17:37.773Z,48.70
2019-03-29T22:20:11.191Z,38.73
2019-03-29T22:22:39.683Z,47.98
2019-03-29T22:25:11.269Z,49.10
2019-03-29T22:27:40.214Z,44.85
2019-03-29T22:30:13.277Z,45.15
2019-03-29T22:32:41.752Z,42.20
2019-03-29T22:35:10.292Z,41.58
2019-03-29T22:37:41.062Z,40.70
2019-03-29T22:40:09.996Z,45.58
2019-03-29T22:42:40.257Z,44.35
2019-03-29T22:45:10.055Z,44.55
2019-03-29T22:47:38.533Z,52.15
2019-03-29T22:50:07.375Z,53.40
2019-03-29T22:52:36.041Z,49.88
2019-03-29T22:55:06.520Z,56.73
2019-03-29T22:57:35.008Z,52.67
2019-03-29T23:00:05.590Z,52.05
2019-03-29T23:02:34.131Z,54.03
2019-03-29T23:05:02.619Z,54.77
2019-03-29T23:07:31.101Z,53.17
2019-03-29T23:09:59.578Z,55.43
2019-03-29T23:12:28.148Z,54.90
2019-03-29T23:14:56.708Z,55.63
2019-03-29T23:17:25.179Z,54.77
2019-03-29T23:19:53.920Z,56.48
2019-03-29T23:22:22.468Z,55.15
2019-03-29T23:24:50.927Z,56.23
2019-03-29T23:27:19.418Z,53.63
2019-03-29T23:29:47.950Z,55.28
2019-03-29T23:32:16.461Z,56.02
2019-03-29T23:34:45.028Z,55.83
2019-03-29T23:37:13.570Z,55.98
2019-03-29T23:39:42.074Z,58.28
2019-03-29T23:42:10.600Z,60.33
2019-03-29T23:44:39.081Z,61.02
2019-03-29T23:47:07.579Z,57.73
2019-03-29T23:49:36.110Z,60.55
2019-03-29T23:52:04.576Z,58.45
2019-03-29T23:54:33.048Z,59.45
2019-03-29T23:57:01.540Z,56.35
2019-03-29T23:59:30.458Z,54.58
